sensor_id;sensor_type;location;lat;lon;timestamp;P1;durP1;ratioP1;P2;durP2;ratioP2
15899;SDS011;8048;50.644;6.184;2024-02-28T00:00:10;10.90;;;7.87;;
15899;SDS011;8048;50.644;6.184;2024-02-28T00:02:36;13.53;;;9.60;;
15899;SDS011;8048;50.644;6.184;2024-02-28T00:05:01;10.00;;;9.00;;
15899;SDS011;8048;50.644;6.184;2024-02-28T00:07:27;10.10;;;9.03;;
15899;SDS011;8048;50.644;6.184;2024-02-28T00:09:53;12.63;;;8.77;;
15899;SDS011;8048;50.644;6.184;2024-02-28T00:12:22;13.40;;;9.00;;
15899;SDS011;8048;50.644;6.184;2024-02-28T00:14:51;15.23;;;9.13;;
15899;SDS011;8048;50.644;6.184;2024-02-28T00:17:17;12.53;;;9.00;;
15899;SDS011;8048;50.644;6.184;2024-02-28T00:19:42;13.03;;;9.10;;
15899;SDS011;8048;50.644;6.184;2024-02-28T00:22:08;12.37;;;9.40;;
15899;SDS011;8048;50.644;6.184;2024-02-28T00:24:34;16.30;;;8.57;;
15899;SDS011;8048;50.644;6.184;2024-02-28T00:27:00;12.17;;;9.20;;
15899;SDS011;8048;50.644;6.184;2024-02-28T00:29:25;12.33;;;9.33;;
15899;SDS011;8048;50.644;6.184;2024-02-28T00:31:51;18.13;;;8.00;;
15899;SDS011;8048;50.644;6.184;2024-02-28T00:34:17;9.97;;;8.03;;
15899;SDS011;8048;50.644;6.184;2024-02-28T00:36:42;16.90;;;8.80;;
15899;SDS011;8048;50.644;6.184;2024-02-28T00:39:08;30.90;;;13.10;;
15899;SDS011;8048;50.644;6.184;2024-02-28T00:41:34;21.47;;;13.83;;
15899;SDS011;8048;50.644;6.184;2024-02-28T00:44:00;50.20;;;16.40;;
15899;SDS011;8048;50.644;6.184;2024-02-28T00:46:27;14.87;;;10.90;;
15899;SDS011;8048;50.644;6.184;2024-02-28T00:48:53;20.03;;;11.07;;
15899;SDS011;8048;50.644;6.184;2024-02-28T00:51:18;19.77;;;12.13;;
15899;SDS011;8048;50.644;6.184;2024-02-28T00:53:44;29.30;;;14.30;;
15899;SDS011;8048;50.644;6.184;2024-02-28T00:56:09;22.20;;;11.97;;
15899;SDS011;8048;50.644;6.184;2024-02-28T00:58:35;24.07;;;15.27;;
15899;SDS011;8048;50.644;6.184;2024-02-28T01:01:00;27.07;;;15.77;;
15899;SDS011;8048;50.644;6.184;2024-02-28T01:03:26;28.60;;;15.33;;
15899;SDS011;8048;50.644;6.184;2024-02-28T01:05:52;24.00;;;13.30;;
15899;SDS011;8048;50.644;6.184;2024-02-28T01:08:17;33.20;;;14.93;;
15899;SDS011;8048;50.644;6.184;2024-02-28T01:10:44;23.67;;;13.93;;
15899;SDS011;8048;50.644;6.184;2024-02-28T01:13:09;20.97;;;12.80;;
15899;SDS011;8048;50.644;6.184;2024-02-28T01:15:35;18.30;;;11.30;;
15899;SDS011;8048;50.644;6.184;2024-02-28T01:18:01;22.23;;;11.43;;
15899;SDS011;8048;50.644;6.184;2024-02-28T01:20:27;17.17;;;10.90;;
15899;SDS011;8048;50.644;6.184;2024-02-28T01:22:52;13.70;;;8.77;;
15899;SDS011;8048;50.644;6.184;2024-02-28T01:25:18;16.70;;;10.57;;
15899;SDS011;8048;50.644;6.184;2024-02-28T01:27:44;17.13;;;10.30;;
15899;SDS011;8048;50.644;6.184;2024-02-28T01:30:09;13.23;;;9.53;;
15899;SDS011;8048;50.644;6.184;2024-02-28T01:32:35;15.50;;;9.17;;
15899;SDS011;8048;50.644;6.184;2024-02-28T01:35:02;12.07;;;9.23;;
15899;SDS011;8048;50.644;6.184;2024-02-28T01:37:28;13.07;;;8.83;;
15899;SDS011;8048;50.644;6.184;2024-02-28T01:39:54;11.50;;;8.50;;
15899;SDS011;8048;50.644;6.184;2024-02-28T01:42:19;10.77;;;8.20;;
15899;SDS011;8048;50.644;6.184;2024-02-28T01:44:46;13.47;;;9.60;;
15899;SDS011;8048;50.644;6.184;2024-02-28T01:47:13;16.53;;;10.13;;
15899;SDS011;8048;50.644;6.184;2024-02-28T01:49:40;17.53;;;9.27;;
15899;SDS011;8048;50.644;6.184;2024-02-28T01:52:07;12.00;;;8.53;;
15899;SDS011;8048;50.644;6.184;2024-02-28T01:54:33;11.73;;;9.03;;
15899;SDS011;8048;50.644;6.184;2024-02-28T01:57:00;11.63;;;8.40;;
15899;SDS011;8048;50.644;6.184;2024-02-28T01:59:26;18.33;;;8.87;;
15899;SDS011;8048;50.644;6.184;2024-02-28T02:01:52;13.00;;;7.97;;
15899;SDS011;8048;50.644;6.184;2024-02-28T02:04:19;13.60;;;8.53;;
15899;SDS011;8048;50.644;6.184;2024-02-28T02:06:44;11.27;;;7.10;;
15899;SDS011;8048;50.644;6.184;2024-02-28T02:09:12;10.30;;;8.00;;
15899;SDS011;8048;50.644;6.184;2024-02-28T02:11:38;9.80;;;7.77;;
15899;SDS011;8048;50.644;6.184;2024-02-28T02:14:04;11.33;;;7.67;;
15899;SDS011;8048;50.644;6.184;2024-02-28T02:16:30;12.80;;;8.40;;
15899;SDS011;8048;50.644;6.184;2024-02-28T02:18:55;12.63;;;8.73;;
15899;SDS011;8048;50.644;6.184;2024-02-28T02:22:04;13.33;;;9.40;;
15899;SDS011;8048;50.644;6.184;2024-02-28T02:24:15;9.70;;;8.63;;
15899;SDS011;8048;50.644;6.184;2024-02-28T02:26:41;10.83;;;8.10;;
15899;SDS011;8048;50.644;6.184;2024-02-28T02:29:09;15.33;;;9.37;;
15899;SDS011;8048;50.644;6.184;2024-02-28T02:31:35;12.50;;;8.87;;
15899;SDS011;8048;50.644;6.184;2024-02-28T02:34:00;10.87;;;8.47;;
15899;SDS011;8048;50.644;6.184;2024-02-28T02:36:26;11.23;;;7.60;;
15899;SDS011;8048;50.644;6.184;2024-02-28T02:38:52;9.23;;;8.20;;
15899;SDS011;8048;50.644;6.184;2024-02-28T02:41:17;12.97;;;8.03;;
15899;SDS011;8048;50.644;6.184;2024-02-28T02:43:43;13.47;;;8.97;;
15899;SDS011;8048;50.644;6.184;2024-02-28T02:46:09;11.67;;;8.00;;
15899;SDS011;8048;50.644;6.184;2024-02-28T02:48:34;12.07;;;8.07;;
15899;SDS011;8048;50.644;6.184;2024-02-28T02:51:00;16.63;;;8.87;;
15899;SDS011;8048;50.644;6.184;2024-02-28T02:53:26;12.90;;;7.20;;
15899;SDS011;8048;50.644;6.184;2024-02-28T02:55:52;9.73;;;7.90;;
15899;SDS011;8048;50.644;6.184;2024-02-28T02:58:19;9.60;;;7.03;;
15899;SDS011;8048;50.644;6.184;2024-02-28T03:00:44;8.57;;;6.80;;
15899;SDS011;8048;50.644;6.184;2024-02-28T03:03:10;8.80;;;6.97;;
15899;SDS011;8048;50.644;6.184;2024-02-28T03:05:35;11.77;;;9.47;;
15899;SDS011;8048;50.644;6.184;2024-02-28T03:08:01;8.13;;;7.33;;
15899;SDS011;8048;50.644;6.184;2024-02-28T03:10:27;6.30;;;5.70;;
15899;SDS011;8048;50.644;6.184;2024-02-28T03:12:53;4.73;;;4.30;;
15899;SDS011;8048;50.644;6.184;2024-02-28T03:15:19;6.33;;;5.70;;
15899;SDS011;8048;50.644;6.184;2024-02-28T03:17:45;8.23;;;5.67;;
15899;SDS011;8048;50.644;6.184;2024-02-28T03:20:11;7.70;;;7.00;;
15899;SDS011;8048;50.644;6.184;2024-02-28T03:22:39;10.57;;;6.87;;
15899;SDS011;8048;50.644;6.184;2024-02-28T03:25:05;9.13;;;7.00;;
15899;SDS011;8048;50.644;6.184;2024-02-28T03:27:31;14.63;;;7.27;;
15899;SDS011;8048;50.644;6.184;2024-02-28T03:29:56;9.77;;;6.30;;
15899;SDS011;8048;50.644;6.184;2024-02-28T03:32:22;12.10;;;8.00;;
15899;SDS011;8048;50.644;6.184;2024-02-28T03:34:47;13.10;;;7.63;;
15899;SDS011;8048;50.644;6.184;2024-02-28T03:37:13;9.07;;;7.73;;
15899;SDS011;8048;50.644;6.184;2024-02-28T03:39:39;10.13;;;7.57;;
15899;SDS011;8048;50.644;6.184;2024-02-28T03:42:05;9.60;;;7.00;;
15899;SDS011;8048;50.644;6.184;2024-02-28T03:44:31;8.60;;;6.20;;
15899;SDS011;8048;50.644;6.184;2024-02-28T03:46:56;9.67;;;8.40;;
15899;SDS011;8048;50.644;6.184;2024-02-28T03:49:22;10.97;;;7.03;;
15899;SDS011;8048;50.644;6.184;2024-02-28T03:51:47;10.17;;;7.23;;
15899;SDS011;8048;50.644;6.184;2024-02-28T03:54:13;11.30;;;7.17;;
15899;SDS011;8048;50.644;6.184;2024-02-28T03:56:38;10.60;;;6.67;;
15899;SDS011;8048;50.644;6.184;2024-02-28T03:59:04;7.47;;;6.63;;
15899;SDS011;8048;50.644;6.184;2024-02-28T04:01:30;8.03;;;7.23;;
15899;SDS011;8048;50.644;6.184;2024-02-28T04:03:56;7.60;;;6.30;;
15899;SDS011;8048;50.644;6.184;2024-02-28T04:06:21;10.00;;;6.43;;
15899;SDS011;8048;50.644;6.184;2024-02-28T04:08:47;9.57;;;6.43;;
15899;SDS011;8048;50.644;6.184;2024-02-28T04:11:12;9.53;;;5.90;;
15899;SDS011;8048;50.644;6.184;2024-02-28T04:13:38;7.90;;;6.57;;
15899;SDS011;8048;50.644;6.184;2024-02-28T04:16:04;9.50;;;6.63;;
15899;SDS011;8048;50.644;6.184;2024-02-28T04:18:30;9.40;;;6.80;;
15899;SDS011;8048;50.644;6.184;2024-02-28T04:20:56;7.30;;;5.20;;
15899;SDS011;8048;50.644;6.184;2024-02-28T04:23:22;7.40;;;6.63;;
15899;SDS011;8048;50.644;6.184;2024-02-28T04:25:47;9.80;;;7.63;;
15899;SDS011;8048;50.644;6.184;2024-02-28T04:28:13;9.57;;;6.63;;
15899;SDS011;8048;50.644;6.184;2024-02-28T04:30:38;6.63;;;5.40;;
15899;SDS011;8048;50.644;6.184;2024-02-28T04:33:04;7.37;;;5.60;;
15899;SDS011;8048;50.644;6.184;2024-02-28T04:35:30;7.70;;;5.90;;
15899;SDS011;8048;50.644;6.184;2024-02-28T04:37:55;7.57;;;6.83;;
15899;SDS011;8048;50.644;6.184;2024-02-28T04:40:21;10.57;;;6.63;;
15899;SDS011;8048;50.644;6.184;2024-02-28T04:42:47;9.37;;;5.83;;
15899;SDS011;8048;50.644;6.184;2024-02-28T04:45:12;5.67;;;5.17;;
15899;SDS011;8048;50.644;6.184;2024-02-28T04:47:38;6.63;;;5.20;;
15899;SDS011;8048;50.644;6.184;2024-02-28T04:50:04;7.50;;;5.17;;
15899;SDS011;8048;50.644;6.184;2024-02-28T04:52:31;6.97;;;6.07;;
15899;SDS011;8048;50.644;6.184;2024-02-28T04:54:57;6.60;;;5.67;;
15899;SDS011;8048;50.644;6.184;2024-02-28T04:57:22;6.67;;;5.60;;
15899;SDS011;8048;50.644;6.184;2024-02-28T04:59:48;9.27;;;7.10;;
15899;SDS011;8048;50.644;6.184;2024-02-28T05:02:14;8.33;;;6.07;;
15899;SDS011;8048;50.644;6.184;2024-02-28T05:04:39;10.03;;;7.80;;
15899;SDS011;8048;50.644;6.184;2024-02-28T05:07:05;9.67;;;7.90;;
15899;SDS011;8048;50.644;6.184;2024-02-28T05:09:32;13.77;;;8.27;;
15899;SDS011;8048;50.644;6.184;2024-02-28T05:11:58;10.20;;;8.77;;
15899;SDS011;8048;50.644;6.184;2024-02-28T05:14:24;20.27;;;11.17;;
15899;SDS011;8048;50.644;6.184;2024-02-28T05:16:50;21.93;;;8.33;;
15899;SDS011;8048;50.644;6.184;2024-02-28T05:19:15;10.07;;;8.07;;
15899;SDS011;8048;50.644;6.184;2024-02-28T05:21:44;12.93;;;8.20;;
15899;SDS011;8048;50.644;6.184;2024-02-28T05:24:10;20.93;;;9.00;;
15899;SDS011;8048;50.644;6.184;2024-02-28T05:26:36;16.00;;;10.80;;
15899;SDS011;8048;50.644;6.184;2024-02-28T05:29:02;21.00;;;10.77;;
15899;SDS011;8048;50.644;6.184;2024-02-28T05:31:29;23.57;;;11.13;;
15899;SDS011;8048;50.644;6.184;2024-02-28T05:33:56;24.00;;;11.70;;
15899;SDS011;8048;50.644;6.184;2024-02-28T05:36:23;20.95;;;11.32;;
15899;SDS011;8048;50.644;6.184;2024-02-28T05:38:50;14.70;;;9.60;;
15899;SDS011;8048;50.644;6.184;2024-02-28T05:41:16;20.48;;;10.50;;
15899;SDS011;8048;50.644;6.184;2024-02-28T05:43:42;14.07;;;9.47;;
15899;SDS011;8048;50.644;6.184;2024-02-28T05:46:08;13.88;;;11.25;;
15899;SDS011;8048;50.644;6.184;2024-02-28T05:48:34;14.03;;;11.03;;
15899;SDS011;8048;50.644;6.184;2024-02-28T05:51:00;15.50;;;11.03;;
15899;SDS011;8048;50.644;6.184;2024-02-28T05:53:26;17.80;;;10.70;;
15899;SDS011;8048;50.644;6.184;2024-02-28T05:55:52;20.53;;;11.43;;
15899;SDS011;8048;50.644;6.184;2024-02-28T05:58:19;15.87;;;9.33;;
15899;SDS011;8048;50.644;6.184;2024-02-28T06:00:44;17.70;;;11.10;;
15899;SDS011;8048;50.644;6.184;2024-02-28T06:03:10;17.77;;;9.10;;
15899;SDS011;8048;50.644;6.184;2024-02-28T06:05:36;13.50;;;8.63;;
15899;SDS011;8048;50.644;6.184;2024-02-28T06:08:01;15.60;;;11.03;;
15899;SDS011;8048;50.644;6.184;2024-02-28T06:10:27;18.17;;;10.20;;
15899;SDS011;8048;50.644;6.184;2024-02-28T06:12:53;18.30;;;10.07;;
15899;SDS011;8048;50.644;6.184;2024-02-28T06:15:19;18.43;;;8.97;;
15899;SDS011;8048;50.644;6.184;2024-02-28T06:17:44;18.87;;;9.27;;
15899;SDS011;8048;50.644;6.184;2024-02-28T06:20:10;22.20;;;12.00;;
15899;SDS011;8048;50.644;6.184;2024-02-28T06:22:36;18.00;;;11.33;;
15899;SDS011;8048;50.644;6.184;2024-02-28T06:25:01;16.10;;;9.30;;
15899;SDS011;8048;50.644;6.184;2024-02-28T06:27:27;20.63;;;11.10;;
15899;SDS011;8048;50.644;6.184;2024-02-28T06:29:52;24.53;;;11.80;;
15899;SDS011;8048;50.644;6.184;2024-02-28T06:32:18;28.87;;;12.37;;
15899;SDS011;8048;50.644;6.184;2024-02-28T06:34:44;27.40;;;14.30;;
15899;SDS011;8048;50.644;6.184;2024-02-28T06:37:09;23.40;;;12.50;;
15899;SDS011;8048;50.644;6.184;2024-02-28T06:39:35;22.87;;;14.90;;
15899;SDS011;8048;50.644;6.184;2024-02-28T06:42:00;32.23;;;13.13;;
15899;SDS011;8048;50.644;6.184;2024-02-28T06:44:26;20.60;;;11.60;;
15899;SDS011;8048;50.644;6.184;2024-02-28T06:46:51;24.87;;;14.50;;
15899;SDS011;8048;50.644;6.184;2024-02-28T06:49:17;24.60;;;12.63;;
15899;SDS011;8048;50.644;6.184;2024-02-28T06:51:45;23.07;;;12.17;;
15899;SDS011;8048;50.644;6.184;2024-02-28T06:54:11;25.53;;;14.13;;
15899;SDS011;8048;50.644;6.184;2024-02-28T06:56:36;22.60;;;14.13;;
15899;SDS011;8048;50.644;6.184;2024-02-28T06:59:02;29.37;;;14.50;;
15899;SDS011;8048;50.644;6.184;2024-02-28T07:01:28;23.40;;;13.10;;
15899;SDS011;8048;50.644;6.184;2024-02-28T07:03:54;23.77;;;13.53;;
15899;SDS011;8048;50.644;6.184;2024-02-28T07:06:20;21.60;;;13.00;;
15899;SDS011;8048;50.644;6.184;2024-02-28T07:08:45;25.27;;;14.00;;
15899;SDS011;8048;50.644;6.184;2024-02-28T07:11:14;19.90;;;11.67;;
15899;SDS011;8048;50.644;6.184;2024-02-28T07:13:40;20.87;;;13.53;;
15899;SDS011;8048;50.644;6.184;2024-02-28T07:16:06;17.00;;;11.10;;
15899;SDS011;8048;50.644;6.184;2024-02-28T07:18:32;25.20;;;14.70;;
15899;SDS011;8048;50.644;6.184;2024-02-28T07:20:58;18.00;;;12.07;;
15899;SDS011;8048;50.644;6.184;2024-02-28T07:23:24;20.07;;;12.80;;
15899;SDS011;8048;50.644;6.184;2024-02-28T07:25:49;22.03;;;14.10;;
15899;SDS011;8048;50.644;6.184;2024-02-28T07:28:15;23.87;;;12.80;;
15899;SDS011;8048;50.644;6.184;2024-02-28T07:30:41;21.37;;;12.53;;
15899;SDS011;8048;50.644;6.184;2024-02-28T07:33:07;18.60;;;11.00;;
15899;SDS011;8048;50.644;6.184;2024-02-28T07:35:43;19.20;;;12.83;;
15899;SDS011;8048;50.644;6.184;2024-02-28T07:38:12;24.93;;;12.13;;
15899;SDS011;8048;50.644;6.184;2024-02-28T07:40:37;23.37;;;15.00;;
15899;SDS011;8048;50.644;6.184;2024-02-28T07:43:03;20.20;;;12.70;;
15899;SDS011;8048;50.644;6.184;2024-02-28T07:45:29;19.90;;;12.13;;
15899;SDS011;8048;50.644;6.184;2024-02-28T07:47:54;16.23;;;10.50;;
15899;SDS011;8048;50.644;6.184;2024-02-28T07:50:20;23.80;;;11.37;;
15899;SDS011;8048;50.644;6.184;2024-02-28T07:52:45;14.17;;;10.20;;
15899;SDS011;8048;50.644;6.184;2024-02-28T07:55:11;21.17;;;12.50;;
15899;SDS011;8048;50.644;6.184;2024-02-28T07:57:37;20.80;;;14.53;;
15899;SDS011;8048;50.644;6.184;2024-02-28T08:00:02;29.17;;;14.50;;
15899;SDS011;8048;50.644;6.184;2024-02-28T08:02:29;20.33;;;12.20;;
15899;SDS011;8048;50.644;6.184;2024-02-28T08:04:54;19.17;;;11.73;;
15899;SDS011;8048;50.644;6.184;2024-02-28T08:07:21;23.60;;;11.90;;
15899;SDS011;8048;50.644;6.184;2024-02-28T08:09:46;31.07;;;16.70;;
15899;SDS011;8048;50.644;6.184;2024-02-28T08:12:12;23.60;;;13.40;;
15899;SDS011;8048;50.644;6.184;2024-02-28T08:14:38;23.83;;;14.40;;
15899;SDS011;8048;50.644;6.184;2024-02-28T08:17:03;22.10;;;13.80;;
15899;SDS011;8048;50.644;6.184;2024-02-28T08:19:29;14.57;;;10.70;;
15899;SDS011;8048;50.644;6.184;2024-02-28T08:21:55;21.00;;;12.50;;
15899;SDS011;8048;50.644;6.184;2024-02-28T08:24:20;17.10;;;10.60;;
15899;SDS011;8048;50.644;6.184;2024-02-28T08:26:46;16.13;;;12.30;;
15899;SDS011;8048;50.644;6.184;2024-02-28T08:29:11;21.70;;;12.60;;
15899;SDS011;8048;50.644;6.184;2024-02-28T08:31:43;23.50;;;12.70;;
15899;SDS011;8048;50.644;6.184;2024-02-28T08:34:09;27.70;;;13.83;;
15899;SDS011;8048;50.644;6.184;2024-02-28T08:36:35;23.17;;;12.40;;
15899;SDS011;8048;50.644;6.184;2024-02-28T08:39:00;21.97;;;13.50;;
15899;SDS011;8048;50.644;6.184;2024-02-28T08:41:26;22.50;;;13.93;;
15899;SDS011;8048;50.644;6.184;2024-02-28T08:43:52;18.70;;;12.67;;
15899;SDS011;8048;50.644;6.184;2024-02-28T08:46:17;19.57;;;11.73;;
15899;SDS011;8048;50.644;6.184;2024-02-28T08:48:43;17.93;;;11.40;;
15899;SDS011;8048;50.644;6.184;2024-02-28T08:51:09;17.73;;;11.40;;
15899;SDS011;8048;50.644;6.184;2024-02-28T08:53:34;19.47;;;12.63;;
15899;SDS011;8048;50.644;6.184;2024-02-28T08:56:00;23.30;;;13.10;;
15899;SDS011;8048;50.644;6.184;2024-02-28T08:58:25;18.03;;;12.57;;
15899;SDS011;8048;50.644;6.184;2024-02-28T09:00:51;22.40;;;12.77;;
15899;SDS011;8048;50.644;6.184;2024-02-28T09:03:17;20.90;;;12.03;;
15899;SDS011;8048;50.644;6.184;2024-02-28T09:05:42;21.90;;;13.07;;
15899;SDS011;8048;50.644;6.184;2024-02-28T09:08:08;18.23;;;11.70;;
15899;SDS011;8048;50.644;6.184;2024-02-28T09:10:34;17.47;;;11.17;;
15899;SDS011;8048;50.644;6.184;2024-02-28T09:12:59;14.63;;;9.47;;
15899;SDS011;8048;50.644;6.184;2024-02-28T09:15:25;18.00;;;11.00;;
15899;SDS011;8048;50.644;6.184;2024-02-28T09:17:50;14.63;;;11.67;;
15899;SDS011;8048;50.644;6.184;2024-02-28T09:20:17;19.67;;;12.47;;
15899;SDS011;8048;50.644;6.184;2024-02-28T09:22:42;20.27;;;11.60;;
15899;SDS011;8048;50.644;6.184;2024-02-28T09:25:08;17.70;;;11.47;;
15899;SDS011;8048;50.644;6.184;2024-02-28T09:27:34;20.00;;;11.53;;
15899;SDS011;8048;50.644;6.184;2024-02-28T09:30:01;18.60;;;12.03;;
15899;SDS011;8048;50.644;6.184;2024-02-28T09:32:27;19.53;;;11.17;;
15899;SDS011;8048;50.644;6.184;2024-02-28T09:34:53;16.90;;;12.30;;
15899;SDS011;8048;50.644;6.184;2024-02-28T09:37:18;11.20;;;8.53;;
15899;SDS011;8048;50.644;6.184;2024-02-28T09:39:46;10.63;;;9.53;;
15899;SDS011;8048;50.644;6.184;2024-02-28T09:42:11;12.03;;;9.00;;
15899;SDS011;8048;50.644;6.184;2024-02-28T09:44:39;10.90;;;7.87;;
15899;SDS011;8048;50.644;6.184;2024-02-28T09:47:05;12.60;;;7.90;;
15899;SDS011;8048;50.644;6.184;2024-02-28T09:49:31;10.13;;;7.50;;
15899;SDS011;8048;50.644;6.184;2024-02-28T09:51:59;8.97;;;7.00;;
15899;SDS011;8048;50.644;6.184;2024-02-28T09:54:26;8.80;;;6.73;;
15899;SDS011;8048;50.644;6.184;2024-02-28T09:56:52;8.60;;;6.30;;
15899;SDS011;8048;50.644;6.184;2024-02-28T09:59:19;8.47;;;5.97;;
15899;SDS011;8048;50.644;6.184;2024-02-28T10:01:47;7.60;;;6.10;;
15899;SDS011;8048;50.644;6.184;2024-02-28T10:04:27;6.50;;;4.67;;
15899;SDS011;8048;50.644;6.184;2024-02-28T10:06:54;5.20;;;4.10;;
15899;SDS011;8048;50.644;6.184;2024-02-28T10:09:20;4.93;;;4.40;;
15899;SDS011;8048;50.644;6.184;2024-02-28T10:11:46;4.63;;;3.77;;
15899;SDS011;8048;50.644;6.184;2024-02-28T10:14:16;4.87;;;3.87;;
15899;SDS011;8048;50.644;6.184;2024-02-28T10:16:45;3.17;;;2.87;;
15899;SDS011;8048;50.644;6.184;2024-02-28T10:19:11;4.20;;;3.80;;
15899;SDS011;8048;50.644;6.184;2024-02-28T10:21:36;4.80;;;4.20;;
15899;SDS011;8048;50.644;6.184;2024-02-28T10:24:02;3.87;;;3.50;;
15899;SDS011;8048;50.644;6.184;2024-02-28T10:26:28;3.43;;;3.13;;
15899;SDS011;8048;50.644;6.184;2024-02-28T10:28:56;2.57;;;2.37;;
15899;SDS011;8048;50.644;6.184;2024-02-28T10:31:22;4.20;;;2.70;;
15899;SDS011;8048;50.644;6.184;2024-02-28T10:33:47;2.50;;;2.30;;
15899;SDS011;8048;50.644;6.184;2024-02-28T10:36:13;3.00;;;2.80;;
15899;SDS011;8048;50.644;6.184;2024-02-28T10:38:39;2.93;;;2.63;;
15899;SDS011;8048;50.644;6.184;2024-02-28T10:41:05;2.50;;;2.00;;
15899;SDS011;8048;50.644;6.184;2024-02-28T10:43:31;2.53;;;2.23;;
15899;SDS011;8048;50.644;6.184;2024-02-28T10:45:59;1.60;;;1.50;;
15899;SDS011;8048;50.644;6.184;2024-02-28T10:48:26;1.80;;;1.70;;
15899;SDS011;8048;50.644;6.184;2024-02-28T10:50:52;2.37;;;2.17;;
15899;SDS011;8048;50.644;6.184;2024-02-28T10:53:22;1.73;;;1.63;;
15899;SDS011;8048;50.644;6.184;2024-02-28T10:55:52;2.47;;;2.27;;
15899;SDS011;8048;50.644;6.184;2024-02-28T10:58:27;1.87;;;1.73;;
15899;SDS011;8048;50.644;6.184;2024-02-28T11:00:59;2.10;;;2.00;;
15899;SDS011;8048;50.644;6.184;2024-02-28T11:03:25;3.30;;;2.30;;
15899;SDS011;8048;50.644;6.184;2024-02-28T11:05:51;2.90;;;2.00;;
15899;SDS011;8048;50.644;6.184;2024-02-28T11:08:23;2.43;;;2.30;;
15899;SDS011;8048;50.644;6.184;2024-02-28T11:10:56;2.60;;;2.43;;
15899;SDS011;8048;50.644;6.184;2024-02-28T11:13:23;2.00;;;1.80;;
15899;SDS011;8048;50.644;6.184;2024-02-28T11:15:49;1.60;;;1.50;;
15899;SDS011;8048;50.644;6.184;2024-02-28T11:18:15;2.07;;;1.80;;
15899;SDS011;8048;50.644;6.184;2024-02-28T11:20:41;1.60;;;1.50;;
15899;SDS011;8048;50.644;6.184;2024-02-28T11:23:09;1.70;;;1.60;;
15899;SDS011;8048;50.644;6.184;2024-02-28T11:25:35;1.70;;;1.60;;
15899;SDS011;8048;50.644;6.184;2024-02-28T11:28:01;1.50;;;1.40;;
15899;SDS011;8048;50.644;6.184;2024-02-28T11:30:26;2.47;;;1.97;;
15899;SDS011;8048;50.644;6.184;2024-02-28T11:32:52;2.30;;;2.10;;
15899;SDS011;8048;50.644;6.184;2024-02-28T11:35:19;2.00;;;1.10;;
15899;SDS011;8048;50.644;6.184;2024-02-28T11:37:45;3.17;;;1.10;;
15899;SDS011;8048;50.644;6.184;2024-02-28T11:40:14;1.67;;;1.57;;
15899;SDS011;8048;50.644;6.184;2024-02-28T11:42:39;1.70;;;1.60;;
15899;SDS011;8048;50.644;6.184;2024-02-28T11:45:05;0.90;;;0.90;;
15899;SDS011;8048;50.644;6.184;2024-02-28T11:47:34;1.23;;;1.23;;
15899;SDS011;8048;50.644;6.184;2024-02-28T11:50:01;0.87;;;0.87;;
15899;SDS011;8048;50.644;6.184;2024-02-28T11:52:30;0.80;;;0.80;;
15899;SDS011;8048;50.644;6.184;2024-02-28T11:54:56;1.50;;;1.40;;
15899;SDS011;8048;50.644;6.184;2024-02-28T11:57:22;1.50;;;1.20;;
15899;SDS011;8048;50.644;6.184;2024-02-28T11:59:47;0.97;;;0.90;;
15899;SDS011;8048;50.644;6.184;2024-02-28T12:02:14;0.90;;;0.90;;
15899;SDS011;8048;50.644;6.184;2024-02-28T12:04:44;1.10;;;1.10;;
15899;SDS011;8048;50.644;6.184;2024-02-28T12:07:10;0.80;;;0.80;;
15899;SDS011;8048;50.644;6.184;2024-02-28T12:09:37;0.80;;;0.80;;
15899;SDS011;8048;50.644;6.184;2024-02-28T12:12:03;1.97;;;0.87;;
15899;SDS011;8048;50.644;6.184;2024-02-28T12:14:31;1.10;;;1.00;;
15899;SDS011;8048;50.644;6.184;2024-02-28T12:17:00;0.60;;;0.60;;
15899;SDS011;8048;50.644;6.184;2024-02-28T12:19:26;0.60;;;0.60;;
15899;SDS011;8048;50.644;6.184;2024-02-28T12:21:53;1.10;;;1.10;;
15899;SDS011;8048;50.644;6.184;2024-02-28T12:24:19;0.93;;;0.80;;
15899;SDS011;8048;50.644;6.184;2024-02-28T12:26:44;0.60;;;0.60;;
15899;SDS011;8048;50.644;6.184;2024-02-28T12:29:10;0.80;;;0.80;;
15899;SDS011;8048;50.644;6.184;2024-02-28T12:31:35;0.50;;;0.50;;
15899;SDS011;8048;50.644;6.184;2024-02-28T12:34:01;0.70;;;0.70;;
15899;SDS011;8048;50.644;6.184;2024-02-28T12:36:28;0.67;;;0.67;;
15899;SDS011;8048;50.644;6.184;2024-02-28T12:38:56;0.70;;;0.70;;
15899;SDS011;8048;50.644;6.184;2024-02-28T12:41:22;0.77;;;0.77;;
15899;SDS011;8048;50.644;6.184;2024-02-28T12:43:48;0.60;;;0.60;;
15899;SDS011;8048;50.644;6.184;2024-02-28T12:46:15;0.70;;;0.60;;
15899;SDS011;8048;50.644;6.184;2024-02-28T12:48:40;0.77;;;0.77;;
15899;SDS011;8048;50.644;6.184;2024-02-28T12:51:06;0.63;;;0.63;;
15899;SDS011;8048;50.644;6.184;2024-02-28T12:53:35;0.60;;;0.60;;
15899;SDS011;8048;50.644;6.184;2024-02-28T12:56:01;0.60;;;0.60;;
15899;SDS011;8048;50.644;6.184;2024-02-28T12:58:27;0.73;;;0.70;;
15899;SDS011;8048;50.644;6.184;2024-02-28T13:00:53;0.50;;;0.50;;
15899;SDS011;8048;50.644;6.184;2024-02-28T13:03:18;1.60;;;1.23;;
15899;SDS011;8048;50.644;6.184;2024-02-28T13:05:44;0.70;;;0.70;;
15899;SDS011;8048;50.644;6.184;2024-02-28T13:08:10;0.70;;;0.70;;
15899;SDS011;8048;50.644;6.184;2024-02-28T13:10:35;1.20;;;1.10;;
15899;SDS011;8048;50.644;6.184;2024-02-28T13:13:06;2.60;;;1.20;;
15899;SDS011;8048;50.644;6.184;2024-02-28T13:15:32;0.90;;;0.90;;
15899;SDS011;8048;50.644;6.184;2024-02-28T13:17:58;1.40;;;1.30;;
15899;SDS011;8048;50.644;6.184;2024-02-28T13:20:23;0.60;;;0.60;;
15899;SDS011;8048;50.644;6.184;2024-02-28T13:22:49;0.80;;;0.80;;
15899;SDS011;8048;50.644;6.184;2024-02-28T13:25:16;1.00;;;1.00;;
15899;SDS011;8048;50.644;6.184;2024-02-28T13:27:44;0.80;;;0.80;;
15899;SDS011;8048;50.644;6.184;2024-02-28T13:30:10;0.97;;;0.97;;
15899;SDS011;8048;50.644;6.184;2024-02-28T13:32:36;0.77;;;0.77;;
15899;SDS011;8048;50.644;6.184;2024-02-28T13:35:02;0.87;;;0.87;;
15899;SDS011;8048;50.644;6.184;2024-02-28T13:37:28;0.70;;;0.70;;
15899;SDS011;8048;50.644;6.184;2024-02-28T13:39:53;1.20;;;1.10;;
15899;SDS011;8048;50.644;6.184;2024-02-28T13:42:19;0.80;;;0.80;;
15899;SDS011;8048;50.644;6.184;2024-02-28T13:44:45;0.77;;;0.77;;
15899;SDS011;8048;50.644;6.184;2024-02-28T13:47:11;0.90;;;0.90;;
15899;SDS011;8048;50.644;6.184;2024-02-28T13:49:40;1.27;;;1.07;;
15899;SDS011;8048;50.644;6.184;2024-02-28T13:52:05;2.63;;;1.10;;
15899;SDS011;8048;50.644;6.184;2024-02-28T13:54:31;1.50;;;1.37;;
15899;SDS011;8048;50.644;6.184;2024-02-28T13:56:57;1.23;;;1.13;;
15899;SDS011;8048;50.644;6.184;2024-02-28T13:59:23;0.90;;;0.90;;
15899;SDS011;8048;50.644;6.184;2024-02-28T14:01:48;0.80;;;0.80;;
15899;SDS011;8048;50.644;6.184;2024-02-28T14:04:14;1.50;;;1.20;;
15899;SDS011;8048;50.644;6.184;2024-02-28T14:06:40;0.80;;;0.80;;
15899;SDS011;8048;50.644;6.184;2024-02-28T14:09:05;1.13;;;1.10;;
15899;SDS011;8048;50.644;6.184;2024-02-28T14:11:31;1.10;;;0.93;;
15899;SDS011;8048;50.644;6.184;2024-02-28T14:13:57;1.10;;;1.10;;
15899;SDS011;8048;50.644;6.184;2024-02-28T14:16:23;1.07;;;1.07;;
15899;SDS011;8048;50.644;6.184;2024-02-28T14:18:49;1.00;;;1.00;;
15899;SDS011;8048;50.644;6.184;2024-02-28T14:21:15;0.70;;;0.70;;
15899;SDS011;8048;50.644;6.184;2024-02-28T14:23:40;0.80;;;0.80;;
15899;SDS011;8048;50.644;6.184;2024-02-28T14:26:06;1.17;;;1.07;;
15899;SDS011;8048;50.644;6.184;2024-02-28T14:28:32;1.20;;;1.10;;
15899;SDS011;8048;50.644;6.184;2024-02-28T14:30:57;1.03;;;1.00;;
15899;SDS011;8048;50.644;6.184;2024-02-28T14:33:23;1.00;;;1.00;;
15899;SDS011;8048;50.644;6.184;2024-02-28T14:35:48;0.80;;;0.80;;
15899;SDS011;8048;50.644;6.184;2024-02-28T14:38:14;0.90;;;0.90;;
15899;SDS011;8048;50.644;6.184;2024-02-28T14:40:40;1.00;;;1.00;;
15899;SDS011;8048;50.644;6.184;2024-02-28T14:43:06;1.03;;;1.03;;